Time;durP1;ratioP1;P1;durP2;ratioP2;P2;SDS_P1;SDS_P2;PMS_P1;PMS_P2;Temp;Humidity;BMP_temperature;BMP_pressure;BME280_temperature;BME280_humidity;BME280_pressure;Samples;Min_cycle;Max_cycle;Signal;HPM_P1;HPM_P2
2023/12/24 00:01:57;;;;;;;6.30;3.08;;;11.30;99.90;;;;;;5093366;28;20035;-66
2023/12/24 00:04:23;;;;;;;5.50;3.05;;;11.20;99.90;;;;;;5092557;28;20509;-67
2023/12/24 00:06:48;;;;;;;7.57;4.18;;;11.20;99.90;;;;;;5093461;28;20028;-67
2023/12/24 00:09:14;;;;;;;5.55;3.28;;;11.20;99.90;;;;;;5092290;28;20029;-64
2023/12/24 00:11:39;;;;;;;6.60;3.22;;;11.20;99.90;;;;;;5093368;28;20046;-65
2023/12/24 00:14:05;;;;;;;7.88;3.45;;;11.20;99.90;;;;;;5093241;28;20024;-65
2023/12/24 00:16:31;;;;;;;4.68;3.03;;;11.20;99.90;;;;;;5093311;28;20055;-65
2023/12/24 00:18:57;;;;;;;7.07;3.00;;;11.20;99.90;;;;;;5093286;28;20016;-65
2023/12/24 00:21:23;;;;;;;4.15;2.80;;;11.30;99.90;;;;;;5093032;28;20035;-65
2023/12/24 00:23:49;;;;;;;5.72;2.95;;;11.30;99.90;;;;;;5092271;28;20021;-66
2023/12/24 00:26:16;;;;;;;7.28;3.00;;;11.20;99.90;;;;;;5093228;28;20013;-67
2023/12/24 00:28:42;;;;;;;5.32;2.92;;;11.30;99.90;;;;;;5093184;28;20032;-66
2023/12/24 00:31:07;;;;;;;7.22;3.53;;;11.30;99.90;;;;;;5092871;28;20028;-65
2023/12/24 00:33:33;;;;;;;4.93;3.30;;;11.30;99.90;;;;;;5092897;28;20040;-66
2023/12/24 00:35:58;;;;;;;7.97;4.00;;;11.30;99.90;;;;;;5092866;28;20039;-67
2023/12/24 00:38:24;;;;;;;5.80;3.35;;;11.30;99.90;;;;;;5092799;28;20053;-65
2023/12/24 00:40:50;;;;;;;9.77;4.07;;;11.30;99.90;;;;;;5092181;28;20088;-66
2023/12/24 00:43:15;;;;;;;7.13;3.83;;;11.30;99.90;;;;;;5092862;28;20029;-68
2023/12/24 00:45:41;;;;;;;8.60;4.35;;;11.30;99.90;;;;;;5091767;28;20028;-66
2023/12/24 00:48:09;;;;;;;9.80;4.47;;;11.30;99.90;;;;;;5092812;28;20021;-66
2023/12/24 00:50:35;;;;;;;9.25;4.90;;;11.30;99.90;;;;;;5092653;28;20030;-66
2023/12/24 00:53:00;;;;;;;9.23;4.70;;;11.30;99.90;;;;;;5092559;28;20103;-68
2023/12/24 00:55:26;;;;;;;8.63;4.45;;;11.30;99.90;;;;;;5092462;28;20008;-65
2023/12/24 00:57:51;;;;;;;5.38;3.80;;;11.30;99.90;;;;;;5092476;28;20387;-65
2023/12/24 01:00:17;;;;;;;6.10;3.92;;;11.40;99.90;;;;;;5092320;28;20040;-66
2023/12/24 01:02:43;;;;;;;7.90;3.83;;;11.30;99.90;;;;;;5092461;28;20048;-65
2023/12/24 01:05:08;;;;;;;5.80;3.67;;;11.30;99.90;;;;;;5091610;28;20138;-69
2023/12/24 01:07:34;;;;;;;5.35;3.30;;;11.30;99.90;;;;;;5092392;28;20047;-66
2023/12/24 01:10:00;;;;;;;6.68;3.50;;;11.30;99.90;;;;;;5092457;28;20034;-66
2023/12/24 01:12:25;;;;;;;5.65;2.72;;;11.30;99.90;;;;;;5092419;28;20028;-65
2023/12/24 01:14:51;;;;;;;5.63;3.03;;;11.30;99.90;;;;;;5092309;28;20040;-66
2023/12/24 01:17:16;;;;;;;4.25;2.55;;;11.30;99.90;;;;;;5092377;28;20039;-66
2023/12/24 01:19:43;;;;;;;3.72;2.30;;;11.30;99.90;;;;;;5092234;28;20029;-66
2023/12/24 01:22:09;;;;;;;4.65;2.08;;;11.30;99.90;;;;;;5092198;28;20063;-69
2023/12/24 01:24:35;;;;;;;4.05;2.40;;;11.30;99.90;;;;;;5091365;28;20024;-66
2023/12/24 01:27:00;;;;;;;4.95;2.05;;;11.30;99.90;;;;;;5091181;28;20037;-65
2023/12/24 01:29:26;;;;;;;4.28;2.60;;;11.30;99.90;;;;;;5092294;28;20051;-66
2023/12/24 01:31:51;;;;;;;3.42;1.70;;;11.30;99.90;;;;;;5092115;28;20178;-66
2023/12/24 01:34:18;;;;;;;4.50;2.03;;;11.30;99.90;;;;;;5092226;28;20031;-66
2023/12/24 01:36:43;;;;;;;3.92;2.03;;;11.30;99.90;;;;;;5092042;28;20017;-66
2023/12/24 01:39:10;;;;;;;5.70;2.30;;;11.40;99.90;;;;;;5091153;28;20063;-66
2023/12/24 01:41:35;;;;;;;3.38;2.00;;;11.40;99.90;;;;;;5092098;28;20024;-65
2023/12/24 01:44:01;;;;;;;7.13;2.50;;;11.30;99.90;;;;;;5092169;28;20028;-65
2023/12/24 01:46:28;;;;;;;5.72;2.42;;;11.30;99.90;;;;;;5092164;28;20029;-66
2023/12/24 01:48:54;;;;;;;4.82;2.40;;;11.30;99.90;;;;;;5092049;28;20027;-66
2023/12/24 01:51:21;;;;;;;7.05;2.67;;;11.20;99.90;;;;;;5092007;28;20044;-66
2023/12/24 01:53:50;;;;;;;4.82;2.28;;;11.10;99.90;;;;;;5094490;28;20052;-67
2023/12/24 01:56:17;;;;;;;4.85;2.15;;;10.90;99.90;;;;;;5095895;28;20402;-66
2023/12/24 01:58:42;;;;;;;6.85;2.80;;;10.80;99.90;;;;;;5095960;28;20037;-66
2023/12/24 02:01:09;;;;;;;6.00;2.65;;;10.70;99.90;;;;;;5095615;28;20017;-66
2023/12/24 02:03:34;;;;;;;8.93;2.65;;;10.70;99.90;;;;;;5095780;28;20082;-65
2023/12/24 02:06:03;;;;;;;9.00;2.72;;;10.70;99.90;;;;;;5095829;28;20024;-66
2023/12/24 02:08:29;;;;;;;8.57;2.97;;;10.70;99.90;;;;;;5095705;28;20023;-66
2023/12/24 02:10:54;;;;;;;6.97;2.58;;;10.60;99.90;;;;;;5094741;28;20050;-66
2023/12/24 02:13:20;;;;;;;7.78;2.58;;;10.60;99.90;;;;;;5095719;28;20044;-67
2023/12/24 02:15:47;;;;;;;6.30;2.47;;;10.60;99.90;;;;;;5095602;28;20029;-64
2023/12/24 02:18:13;;;;;;;10.00;2.45;;;10.60;99.90;;;;;;5095488;28;20029;-66
2023/12/24 02:20:39;;;;;;;7.57;2.53;;;10.60;99.90;;;;;;5095378;28;20394;-65
2023/12/24 02:23:04;;;;;;;5.05;2.33;;;10.50;99.90;;;;;;5095492;28;20047;-66
2023/12/24 02:25:31;;;;;;;5.75;2.35;;;10.50;99.90;;;;;;5095400;28;20031;-65
2023/12/24 02:28:13;;;;;;;4.35;2.33;;;10.40;99.90;;;;;;5095345;28;20021;-66
2023/12/24 02:30:46;;;;;;;8.45;2.22;;;10.40;99.90;;;;;;5094048;28;20042;-65
2023/12/24 02:33:12;;;;;;;5.50;2.38;;;10.40;99.90;;;;;;5095256;28;20025;-66
2023/12/24 02:35:39;;;;;;;6.43;2.70;;;10.40;99.90;;;;;;5095126;28;20020;-66
2023/12/24 02:38:05;;;;;;;9.25;2.80;;;10.40;99.90;;;;;;5095161;28;20032;-66
2023/12/24 02:40:31;;;;;;;6.22;2.00;;;10.40;99.90;;;;;;5094993;28;20033;-65
2023/12/24 02:42:56;;;;;;;5.30;2.05;;;10.40;99.90;;;;;;5095080;28;20036;-66
2023/12/24 02:45:22;;;;;;;5.95;2.58;;;10.40;99.90;;;;;;5093913;28;20029;-66
2023/12/24 02:47:48;;;;;;;5.95;2.47;;;10.50;99.90;;;;;;5094144;28;20025;-67
2023/12/24 02:50:16;;;;;;;9.00;2.42;;;10.50;99.90;;;;;;5094882;28;20115;-67
2023/12/24 02:52:42;;;;;;;9.32;2.33;;;10.40;99.90;;;;;;5094928;28;20032;-66
2023/12/24 02:55:07;;;;;;;8.90;2.70;;;10.50;99.90;;;;;;5094900;28;20078;-66
2023/12/24 02:57:33;;;;;;;7.05;2.95;;;10.40;99.90;;;;;;5094620;28;20059;-65
2023/12/24 02:59:58;;;;;;;6.00;2.47;;;10.50;99.90;;;;;;5094639;28;20521;-65
2023/12/24 03:02:24;;;;;;;5.50;2.17;;;10.50;99.90;;;;;;5094418;28;20050;-65
2023/12/24 03:04:50;;;;;;;5.82;1.95;;;10.40;99.90;;;;;;5094249;28;20039;-66
2023/12/24 03:07:15;;;;;;;4.20;2.25;;;10.50;99.90;;;;;;5094682;28;20048;-65
2023/12/24 03:09:41;;;;;;;4.88;2.33;;;10.50;99.90;;;;;;5094638;28;20032;-66
2023/12/24 03:12:07;;;;;;;4.53;2.78;;;10.50;99.90;;;;;;5094684;28;20025;-65
2023/12/24 03:14:32;;;;;;;7.63;2.30;;;10.60;99.90;;;;;;5093357;28;20049;-66
2023/12/24 03:16:58;;;;;;;9.30;2.28;;;10.60;99.90;;;;;;5094522;28;20020;-66
2023/12/24 03:19:24;;;;;;;7.30;2.20;;;10.60;99.90;;;;;;5094367;28;20036;-66
2023/12/24 03:21:49;;;;;;;4.38;1.92;;;10.60;99.90;;;;;;5094249;28;20082;-65
2023/12/24 03:24:15;;;;;;;5.25;2.30;;;10.60;99.90;;;;;;5094306;28;20032;-66
2023/12/24 03:26:40;;;;;;;4.53;2.13;;;10.60;99.90;;;;;;5094274;28;20024;-66
2023/12/24 03:29:06;;;;;;;4.97;2.30;;;10.60;99.90;;;;;;5094069;28;20102;-66
2023/12/24 03:31:31;;;;;;;6.82;2.70;;;10.60;99.90;;;;;;5094053;28;20693;-65
2023/12/24 03:33:57;;;;;;;6.00;2.90;;;10.60;99.90;;;;;;5094101;28;20036;-66
2023/12/24 03:36:23;;;;;;;5.80;2.53;;;10.60;99.90;;;;;;5094051;28;20036;-67
2023/12/24 03:38:48;;;;;;;5.07;2.45;;;10.60;99.90;;;;;;5094078;28;20044;-65
2023/12/24 03:41:15;;;;;;;9.48;2.72;;;10.60;99.90;;;;;;5093860;28;20054;-66
2023/12/24 03:43:40;;;;;;;7.68;2.83;;;10.60;99.90;;;;;;5093907;28;20029;-67
2023/12/24 03:46:06;;;;;;;6.03;2.47;;;10.60;99.90;;;;;;5093943;28;20020;-66
2023/12/24 03:48:33;;;;;;;5.22;2.47;;;10.60;99.90;;;;;;5093876;28;20031;-67
2023/12/24 03:50:58;;;;;;;4.22;2.40;;;10.60;99.90;;;;;;5093802;28;20054;-65
2023/12/24 03:53:24;;;;;;;3.88;1.90;;;10.70;99.90;;;;;;5093780;28;20494;-68
2023/12/24 03:55:50;;;;;;;3.47;1.80;;;10.70;99.90;;;;;;5093459;28;20044;-66
2023/12/24 03:58:15;;;;;;;4.28;1.70;;;10.70;99.90;;;;;;5093168;28;20048;-66
2023/12/24 04:00:41;;;;;;;2.83;1.52;;;10.70;99.90;;;;;;5093331;28;20037;-66
2023/12/24 04:03:06;;;;;;;4.43;2.28;;;10.70;99.90;;;;;;5093620;28;20027;-66
2023/12/24 04:05:32;;;;;;;4.82;1.90;;;10.70;99.90;;;;;;5093474;28;20029;-67
2023/12/24 04:07:57;;;;;;;3.60;1.88;;;10.80;99.90;;;;;;5092425;28;20079;-65
2023/12/24 04:10:23;;;;;;;2.92;1.15;;;10.70;99.90;;;;;;5093385;28;20084;-66
2023/12/24 04:12:49;;;;;;;3.42;1.08;;;10.80;99.90;;;;;;5093325;28;20092;-65
2023/12/24 04:15:14;;;;;;;3.97;1.05;;;10.80;99.90;;;;;;5092354;28;20056;-66
2023/12/24 04:17:40;;;;;;;2.15;0.75;;;10.80;99.90;;;;;;5093321;28;20025;-65
2023/12/24 04:20:06;;;;;;;1.08;0.70;;;10.80;99.90;;;;;;5093178;28;20475;-65
2023/12/24 04:22:32;;;;;;;1.67;0.82;;;10.80;99.90;;;;;;5092045;28;20132;-66
2023/12/24 04:24:58;;;;;;;1.48;0.70;;;10.80;99.90;;;;;;5093235;28;20031;-66
2023/12/24 04:27:25;;;;;;;1.63;0.80;;;10.80;99.90;;;;;;5093011;28;20024;-67
2023/12/24 04:29:51;;;;;;;1.73;0.52;;;10.80;99.90;;;;;;5091911;28;20036;-66
2023/12/24 04:32:18;;;;;;;1.35;0.70;;;10.80;99.90;;;;;;5091904;28;20028;-66
2023/12/24 04:34:44;;;;;;;1.90;0.57;;;10.80;99.90;;;;;;5092999;28;20027;-68
2023/12/24 04:37:10;;;;;;;0.88;0.50;;;10.80;99.90;;;;;;5092937;28;20021;-65
2023/12/24 04:39:36;;;;;;;0.70;0.43;;;10.80;99.90;;;;;;5092889;28;20024;-67
2023/12/24 04:42:02;;;;;;;0.90;0.50;;;10.80;99.90;;;;;;5092656;28;20089;-65
2023/12/24 04:44:27;;;;;;;0.98;0.52;;;10.80;99.90;;;;;;5092849;28;20036;-67
2023/12/24 04:46:53;;;;;;;1.08;0.60;;;10.90;99.90;;;;;;5092687;28;20033;-66
2023/12/24 04:49:19;;;;;;;0.90;0.45;;;10.80;99.90;;;;;;5092756;28;20017;-66
2023/12/24 04:51:45;;;;;;;0.73;0.30;;;10.90;99.90;;;;;;5092715;28;20136;-66
2023/12/24 04:54:11;;;;;;;0.82;0.40;;;10.90;99.90;;;;;;5092732;28;20028;-66
2023/12/24 04:56:37;;;;;;;1.02;0.50;;;10.90;99.90;;;;;;5092370;28;20042;-67
2023/12/24 04:59:02;;;;;;;1.00;0.60;;;10.90;99.90;;;;;;5092544;28;20063;-67
2023/12/24 05:01:28;;;;;;;1.33;0.80;;;10.90;99.90;;;;;;5092278;28;20090;-66
2023/12/24 05:03:53;;;;;;;0.63;0.50;;;10.90;99.90;;;;;;5092538;28;20072;-66
2023/12/24 05:06:19;;;;;;;1.15;0.80;;;10.90;99.90;;;;;;5092535;28;20115;-66
2023/12/24 05:08:45;;;;;;;1.00;0.57;;;10.90;99.90;;;;;;5092471;28;20021;-66
2023/12/24 05:11:10;;;;;;;1.23;0.85;;;10.90;99.90;;;;;;5092342;28;20459;-66
2023/12/24 05:13:37;;;;;;;1.25;0.63;;;10.90;99.90;;;;;;5092370;28;20036;-65
2023/12/24 05:16:03;;;;;;;0.77;0.43;;;10.90;99.90;;;;;;5092403;28;20050;-66
2023/12/24 05:18:29;;;;;;;0.80;0.60;;;11.00;99.90;;;;;;5091397;28;20032;-66
2023/12/24 05:20:55;;;;;;;1.35;0.90;;;11.00;99.90;;;;;;5092146;28;20031;-66
2023/12/24 05:23:21;;;;;;;1.60;1.00;;;11.00;99.90;;;;;;5092429;28;20043;-66
2023/12/24 05:25:47;;;;;;;1.27;0.70;;;11.00;99.90;;;;;;5092083;28;20060;-66
2023/12/24 05:28:13;;;;;;;0.82;0.57;;;11.00;99.90;;;;;;5092273;28;20074;-65
2023/12/24 05:30:39;;;;;;;0.57;0.45;;;11.00;99.90;;;;;;5091966;28;20085;-67
2023/12/24 05:33:04;;;;;;;0.98;0.70;;;11.00;99.90;;;;;;5092153;28;20048;-66
2023/12/24 05:35:30;;;;;;;0.90;0.57;;;11.00;99.90;;;;;;5092243;28;20031;-67
2023/12/24 05:37:56;;;;;;;1.08;0.75;;;11.00;99.90;;;;;;5092267;28;20024;-67
2023/12/24 05:40:21;;;;;;;1.92;0.77;;;11.00;99.90;;;;;;5091136;28;20490;-66
2023/12/24 05:42:47;;;;;;;0.50;0.47;;;11.00;99.90;;;;;;5092041;28;20032;-66
2023/12/24 05:45:13;;;;;;;0.82;0.50;;;11.00;99.90;;;;;;5092133;28;20540;-66
2023/12/24 05:47:38;;;;;;;1.85;0.60;;;11.00;99.90;;;;;;5091119;28;20054;-66
2023/12/24 05:50:08;;;;;;;1.25;0.75;;;11.00;99.90;;;;;;5092031;28;20052;-66
2023/12/24 05:52:34;;;;;;;1.98;1.00;;;11.10;99.90;;;;;;5092060;28;20036;-67
2023/12/24 05:55:03;;;;;;;1.73;0.63;;;11.00;99.90;;;;;;5091941;28;20087;-67
2023/12/24 05:57:29;;;;;;;1.00;0.60;;;11.00;99.90;;;;;;5091595;28;20104;-65
2023/12/24 05:59:55;;;;;;;1.30;0.70;;;11.10;99.90;;;;;;5090947;28;20036;-67
2023/12/24 06:02:21;;;;;;;1.40;0.98;;;11.00;99.90;;;;;;5091618;28;20028;-66
2023/12/24 06:04:46;;;;;;;1.52;0.80;;;11.10;99.90;;;;;;5091820;28;20048;-66
2023/12/24 06:07:12;;;;;;;1.45;0.82;;;11.10;99.90;;;;;;5091924;28;20025;-66
2023/12/24 06:09:38;;;;;;;1.35;0.70;;;11.10;99.90;;;;;;5091737;28;20035;-65
2023/12/24 06:12:04;;;;;;;0.80;0.60;;;11.10;99.90;;;;;;5091835;28;20033;-65
2023/12/24 06:14:30;;;;;;;0.75;0.47;;;11.10;99.90;;;;;;5091837;28;20029;-66
2023/12/24 06:16:56;;;;;;;1.88;0.88;;;11.10;99.90;;;;;;5090884;28;20036;-66
2023/12/24 06:19:22;;;;;;;1.13;0.55;;;11.10;99.90;;;;;;5091760;28;20025;-66
2023/12/24 06:21:47;;;;;;;1.20;0.60;;;11.20;99.90;;;;;;5091641;28;20096;-66
2023/12/24 06:24:13;;;;;;;1.48;0.60;;;11.10;99.90;;;;;;5091635;28;20025;-65
2023/12/24 06:26:39;;;;;;;1.17;0.90;;;11.10;99.90;;;;;;5091785;28;20021;-66
2023/12/24 06:29:04;;;;;;;1.15;0.70;;;11.10;99.90;;;;;;5091755;28;20025;-65
2023/12/24 06:31:30;;;;;;;1.10;0.60;;;11.20;99.90;;;;;;5091512;28;20052;-67
2023/12/24 06:33:56;;;;;;;1.48;0.75;;;11.10;99.90;;;;;;5090612;28;20064;-66
2023/12/24 06:36:21;;;;;;;0.95;0.57;;;11.10;99.90;;;;;;5091615;28;20033;-66
2023/12/24 06:38:47;;;;;;;1.58;0.93;;;11.20;99.90;;;;;;5092994;28;20033;-65
2023/12/24 06:41:12;;;;;;;0.85;0.60;;;11.20;99.90;;;;;;5095175;28;20021;-66
2023/12/24 06:43:38;;;;;;;1.08;0.77;;;11.10;99.90;;;;;;5095199;28;20028;-67
2023/12/24 06:46:11;;;;;;;1.60;0.90;;;11.20;99.90;;;;;;5095185;28;20055;-67
2023/12/24 06:48:37;;;;;;;1.23;0.60;;;11.20;99.90;;;;;;5095143;28;20362;-67
2023/12/24 06:51:03;;;;;;;2.17;0.90;;;11.20;99.90;;;;;;5094958;28;20028;-66
2023/12/24 06:53:29;;;;;;;1.33;0.70;;;11.20;99.90;;;;;;5094882;28;20093;-66
2023/12/24 06:55:54;;;;;;;2.45;0.90;;;11.20;99.90;;;;;;5094929;28;20032;-66
2023/12/24 06:58:20;;;;;;;1.42;0.85;;;11.20;99.90;;;;;;5094692;28;20056;-66
2023/12/24 07:00:45;;;;;;;1.33;0.85;;;11.20;99.90;;;;;;5094525;28;20066;-66
2023/12/24 07:03:12;;;;;;;2.75;0.98;;;11.20;99.90;;;;;;5094703;28;20529;-67
2023/12/24 07:05:38;;;;;;;2.15;1.13;;;11.20;99.90;;;;;;5093699;28;20016;-67
2023/12/24 07:08:07;;;;;;;1.60;0.90;;;11.30;99.90;;;;;;5094715;28;20048;-66
2023/12/24 07:10:32;;;;;;;1.80;0.95;;;11.20;99.90;;;;;;5094739;28;20028;-66
2023/12/24 07:12:58;;;;;;;1.45;0.82;;;11.20;99.90;;;;;;5094656;28;20042;-66
2023/12/24 07:15:23;;;;;;;1.25;0.73;;;11.20;99.90;;;;;;5094468;28;20032;-67
2023/12/24 07:17:49;;;;;;;1.70;0.90;;;11.20;99.90;;;;;;5093508;28;20029;-66
2023/12/24 07:20:15;;;;;;;1.70;0.88;;;11.20;99.90;;;;;;5094229;28;20078;-66
2023/12/24 07:22:40;;;;;;;1.60;1.10;;;11.20;99.90;;;;;;5094218;28;20028;-66
2023/12/24 07:25:06;;;;;;;2.20;1.23;;;11.20;99.90;;;;;;5094405;28;20029;-66
2023/12/24 07:27:32;;;;;;;1.85;1.10;;;11.20;99.90;;;;;;5093174;28;20219;-67
2023/12/24 07:29:57;;;;;;;2.33;0.98;;;11.30;99.90;;;;;;5094324;28;20028;-65
2023/12/24 07:32:23;;;;;;;2.03;1.00;;;11.30;99.90;;;;;;5093969;28;20092;-65
2023/12/24 07:34:49;;;;;;;2.00;1.00;;;11.30;99.90;;;;;;5094199;28;20029;-66
2023/12/24 07:37:16;;;;;;;1.55;0.90;;;11.30;99.90;;;;;;5094094;28;20023;-65
2023/12/24 07:39:42;;;;;;;1.90;1.02;;;11.20;99.90;;;;;;5094092;28;20084;-66
2023/12/24 07:42:07;;;;;;;1.65;0.70;;;11.30;99.90;;;;;;5093946;28;20066;-67
2023/12/24 07:44:33;;;;;;;3.13;1.10;;;11.30;99.90;;;;;;5094006;28;20088;-66
2023/12/24 07:46:59;;;;;;;1.92;1.10;;;11.30;99.90;;;;;;5095972;28;20024;-67
2023/12/24 07:49:26;;;;;;;7.78;3.58;;;11.30;99.90;;;;;;5113736;28;20030;-67
2023/12/24 07:51:52;;;;;;;10.15;5.13;;;11.30;99.90;;;;;;5112919;28;20024;-67
2023/12/24 07:54:17;;;;;;;18.33;11.25;;;11.30;99.90;;;;;;5112093;28;20024;-66
2023/12/24 07:56:43;;;;;;;5.05;3.05;;;11.40;99.90;;;;;;5113323;28;20049;-65
2023/12/24 07:59:09;;;;;;;1.85;1.23;;;11.40;99.90;;;;;;5112300;28;20278;-66
2023/12/24 08:01:37;;;;;;;3.35;1.70;;;11.40;99.90;;;;;;5113743;28;20057;-66
2023/12/24 08:04:03;;;;;;;3.55;2.00;;;11.40;99.90;;;;;;5112809;28;20020;-66
2023/12/24 08:06:29;;;;;;;3.55;1.63;;;11.30;99.90;;;;;;5113777;28;20111;-65
2023/12/24 08:08:55;;;;;;;3.05;1.58;;;11.40;99.90;;;;;;5113885;28;20050;-66
2023/12/24 08:11:21;;;;;;;2.53;1.45;;;11.40;99.90;;;;;;5113770;28;20046;-66
2023/12/24 08:13:46;;;;;;;3.13;1.90;;;11.50;99.90;;;;;;5113701;28;20027;-66
2023/12/24 08:16:12;;;;;;;3.05;1.83;;;11.40;99.90;;;;;;5113580;28;20024;-66
2023/12/24 08:18:38;;;;;;;3.40;1.60;;;11.50;99.90;;;;;;5113561;28;20054;-65
2023/12/24 08:21:06;;;;;;;2.80;1.30;;;11.50;99.90;;;;;;5113465;28;20042;-66
2023/12/24 08:23:32;;;;;;;2.95;1.50;;;11.50;99.90;;;;;;5113586;28;20020;-66
2023/12/24 08:25:58;;;;;;;1.63;1.17;;;11.50;99.90;;;;;;5113436;28;20071;-65
2023/12/24 08:28:23;;;;;;;2.80;1.55;;;11.50;99.90;;;;;;5112333;28;20059;-64
2023/12/24 08:30:49;;;;;;;2.17;1.40;;;11.50;99.90;;;;;;5113162;28;20055;-65
2023/12/24 08:33:14;;;;;;;0.75;0.47;;;11.50;99.90;;;;;;5113332;28;20021;-66
2023/12/24 08:35:40;;;;;;;1.63;0.90;;;11.60;99.90;;;;;;5113358;28;20035;-65
2023/12/24 08:38:05;;;;;;;0.95;0.63;;;11.60;99.90;;;;;;5113302;28;20024;-65
2023/12/24 08:40:31;;;;;;;1.27;0.63;;;11.60;99.90;;;;;;5113254;28;20038;-65
2023/12/24 08:42:57;;;;;;;1.48;0.80;;;11.60;99.90;;;;;;5113141;28;20146;-65
2023/12/24 08:45:23;;;;;;;3.03;1.42;;;11.60;99.90;;;;;;5106617;28;20024;-66
2023/12/24 08:47:49;;;;;;;1.77;1.20;;;11.60;99.90;;;;;;5109923;28;20047;-66
2023/12/24 08:50:15;;;;;;;5.00;3.70;;;11.60;99.90;;;;;;5111370;28;20020;-65
2023/12/24 08:52:41;;;;;;;1.15;0.75;;;11.60;99.90;;;;;;5106093;28;20028;-66
2023/12/24 08:55:07;;;;;;;1.05;0.70;;;11.60;99.90;;;;;;5111950;28;20035;-66
2023/12/24 08:57:33;;;;;;;1.92;1.13;;;11.70;99.90;;;;;;5110619;28;20048;-65
2023/12/24 08:59:58;;;;;;;3.17;2.30;;;11.60;99.90;;;;;;5112608;28;20032;-66
2023/12/24 09:02:24;;;;;;;0.95;0.68;;;11.70;99.90;;;;;;5111956;28;20032;-66
2023/12/24 09:04:49;;;;;;;1.33;0.95;;;11.60;99.90;;;;;;5112018;28;20024;-65
2023/12/24 09:07:16;;;;;;;2.47;1.50;;;11.60;99.90;;;;;;5112649;28;20082;-66
2023/12/24 09:09:42;;;;;;;2.80;1.60;;;11.60;99.90;;;;;;5112833;28;20024;-68
2023/12/24 09:12:08;;;;;;;1.50;0.98;;;11.70;99.90;;;;;;5112867;28;20042;-66
2023/12/24 09:14:33;;;;;;;1.10;0.70;;;11.70;99.90;;;;;;5112634;28;20036;-66
2023/12/24 09:16:59;;;;;;;2.25;1.08;;;11.60;99.90;;;;;;5112661;28;20035;-66
2023/12/24 09:19:25;;;;;;;1.25;0.73;;;11.70;99.90;;;;;;5112695;28;20028;-66
2023/12/24 09:21:50;;;;;;;1.95;1.17;;;11.70;99.90;;;;;;5112583;28;20058;-66
2023/12/24 09:24:16;;;;;;;5.75;2.83;;;11.70;99.90;;;;;;5112567;28;20043;-66
2023/12/24 09:26:41;;;;;;;2.45;1.45;;;11.70;99.90;;;;;;5111445;28;20119;-68
2023/12/24 09:29:07;;;;;;;3.78;1.85;;;11.70;99.90;;;;;;5112504;28;20039;-65
2023/12/24 09:31:33;;;;;;;1.67;1.05;;;11.60;99.90;;;;;;5111350;28;20083;-66
2023/12/24 09:33:59;;;;;;;2.63;1.30;;;11.70;99.90;;;;;;5112462;28;20039;-66
2023/12/24 09:36:25;;;;;;;1.60;1.02;;;11.70;99.90;;;;;;5112590;28;20024;-65
2023/12/24 09:38:50;;;;;;;2.10;1.15;;;11.70;99.90;;;;;;5112427;28;20043;-65
2023/12/24 09:41:18;;;;;;;1.92;1.00;;;11.70;99.90;;;;;;5112316;28;20114;-66
2023/12/24 09:43:44;;;;;;;4.57;1.50;;;11.70;99.90;;;;;;5112396;28;20020;-65
2023/12/24 09:46:10;;;;;;;1.55;0.93;;;11.80;99.90;;;;;;5112199;28;20046;-65
2023/12/24 09:48:35;;;;;;;1.77;1.08;;;11.80;99.90;;;;;;5112297;28;20031;-66
2023/12/24 09:51:06;;;;;;;3.08;1.17;;;11.80;99.90;;;;;;5112263;28;20035;-67
2023/12/24 09:53:32;;;;;;;1.88;1.10;;;11.80;99.90;;;;;;5112392;28;20080;-66
2023/12/24 09:55:58;;;;;;;2.10;0.90;;;11.90;99.90;;;;;;5112168;28;20024;-67
2023/12/24 09:58:24;;;;;;;1.65;0.82;;;11.90;99.90;;;;;;5112101;28;20106;-66
2023/12/24 10:00:50;;;;;;;3.25;2.00;;;11.90;99.90;;;;;;5111905;28;20021;-66
2023/12/24 10:03:15;;;;;;;1.83;1.13;;;11.90;99.90;;;;;;5112183;28;20058;-66
2023/12/24 10:06:03;;;;;;;2.58;1.45;;;11.90;99.90;;;;;;5112298;28;20141;-65
2023/12/24 10:08:30;;;;;;;2.33;1.40;;;12.00;99.90;;;;;;5112331;28;20021;-66
2023/12/24 10:10:57;;;;;;;2.28;1.45;;;12.00;99.90;;;;;;5112384;28;20024;-66
2023/12/24 10:13:23;;;;;;;2.13;1.40;;;12.00;99.90;;;;;;5113051;28;20020;-65
2023/12/24 10:16:05;;;;;;;2.05;1.20;;;12.00;99.90;;;;;;5115271;28;20031;-66
2023/12/24 10:18:32;;;;;;;1.92;1.48;;;12.00;99.90;;;;;;5115843;28;20024;-65
2023/12/24 10:21:10;;;;;;;2.47;1.27;;;11.90;99.90;;;;;;5115769;28;20078;-66
2023/12/24 10:23:37;;;;;;;1.95;1.15;;;11.90;99.90;;;;;;5115629;28;20036;-67
2023/12/24 10:26:05;;;;;;;4.78;1.85;;;11.90;99.90;;;;;;5115469;28;20023;-66
2023/12/24 10:28:32;;;;;;;3.17;1.85;;;12.00;99.90;;;;;;5095168;28;20085;-66
2023/12/24 10:31:08;;;;;;;4.93;2.20;;;12.00;99.90;;;;;;5095394;28;20232;-66
2023/12/24 10:33:37;;;;;;;5.72;2.50;;;12.00;99.90;;;;;;5115567;28;20035;-66
2023/12/24 10:36:04;;;;;;;5.97;2.92;;;12.10;99.90;;;;;;5107723;28;20028;-67
2023/12/24 10:38:30;;;;;;;6.88;3.30;;;12.00;99.90;;;;;;5104133;28;20038;-66
2023/12/24 10:40:56;;;;;;;11.75;4.50;;;12.10;99.90;;;;;;5102469;28;20099;-65
2023/12/24 10:43:22;;;;;;;7.75;4.05;;;12.10;99.90;;;;;;5095092;28;20032;-66
2023/12/24 10:45:47;;;;;;;12.80;4.35;;;12.20;99.90;;;;;;5094944;28;20028;-65
2023/12/24 10:48:13;;;;;;;13.57;5.10;;;12.20;99.90;;;;;;5095007;28;20032;-65
2023/12/24 10:50:39;;;;;;;13.57;5.50;;;12.20;99.90;;;;;;5094733;28;20020;-66
2023/12/24 10:53:04;;;;;;;14.23;6.13;;;12.20;99.90;;;;;;5094401;28;20036;-67
2023/12/24 10:55:32;;;;;;;19.45;6.90;;;12.30;99.90;;;;;;5094243;28;20052;-66
2023/12/24 10:58:20;;;;;;;17.38;6.93;;;12.30;99.90;;;;;;5094482;28;20049;-67
2023/12/24 11:00:46;;;;;;;17.23;7.25;;;12.30;99.90;;;;;;5093339;28;20020;-66
2023/12/24 11:03:31;;;;;;;16.33;7.00;;;12.30;99.90;;;;;;5094869;28;20510;-66
2023/12/24 11:05:58;;;;;;;17.48;7.10;;;12.30;99.90;;;;;;5106031;28;20043;-66
2023/12/24 11:08:24;;;;;;;17.55;7.57;;;12.40;99.90;;;;;;5114928;28;20032;-66
2023/12/24 11:11:03;;;;;;;17.40;7.30;;;12.40;99.90;;;;;;5114851;28;20032;-66
2023/12/24 11:13:32;;;;;;;14.13;5.80;;;12.40;99.90;;;;;;5114845;28;20016;-64
2023/12/24 11:15:59;;;;;;;18.33;7.32;;;12.50;99.90;;;;;;5114102;28;20949;-67
2023/12/24 11:18:48;;;;;;;14.65;6.68;;;12.50;99.90;;;;;;5114267;28;20025;-65
2023/12/24 11:21:15;;;;;;;19.67;7.40;;;12.50;99.90;;;;;;5114528;28;20035;-66
2023/12/24 11:24:02;;;;;;;15.20;6.35;;;12.50;99.90;;;;;;5114652;28;20017;-65
2023/12/24 11:26:31;;;;;;;16.27;6.25;;;12.50;99.90;;;;;;5113342;28;20025;-66
2023/12/24 11:28:58;;;;;;;13.60;5.45;;;12.60;99.90;;;;;;5114464;28;20036;-67
2023/12/24 11:31:28;;;;;;;12.93;4.65;;;12.60;99.90;;;;;;5114373;28;20099;-66
2023/12/24 11:33:55;;;;;;;10.18;4.20;;;12.60;99.90;;;;;;5114351;28;20028;-65
2023/12/24 11:36:24;;;;;;;8.15;3.53;;;12.60;99.90;;;;;;5114257;28;20070;-66
2023/12/24 11:38:57;;;;;;;8.48;3.90;;;12.50;99.90;;;;;;5114290;28;20034;-66
2023/12/24 11:41:23;;;;;;;7.00;3.08;;;12.60;99.90;;;;;;5114205;28;20032;-65
2023/12/24 11:43:58;;;;;;;5.55;2.50;;;12.60;99.90;;;;;;5114238;28;20386;-66
2023/12/24 11:46:25;;;;;;;4.57;2.25;;;12.50;99.90;;;;;;5110276;28;20024;-65
2023/12/24 11:48:52;;;;;;;3.60;1.80;;;12.50;99.90;;;;;;5103399;28;20017;-66
2023/12/24 11:51:23;;;;;;;3.83;1.70;;;12.60;99.90;;;;;;5102508;28;20020;-66
2023/12/24 11:53:49;;;;;;;4.22;1.70;;;12.60;99.90;;;;;;5103322;28;20379;-66
2023/12/24 11:56:16;;;;;;;3.42;1.92;;;12.60;99.90;;;;;;5108015;28;20070;-66
2023/12/24 11:58:57;;;;;;;2.70;1.33;;;12.60;99.90;;;;;;5108455;28;20056;-66
2023/12/24 12:01:24;;;;;;;2.80;1.30;;;12.50;99.90;;;;;;5113632;28;20032;-67
2023/12/24 12:04:04;;;;;;;2.45;1.17;;;12.50;99.90;;;;;;5113572;28;20087;-66
2023/12/24 12:06:31;;;;;;;1.85;1.25;;;12.50;99.90;;;;;;5113697;28;20091;-66
2023/12/24 12:08:58;;;;;;;3.05;1.20;;;12.50;99.90;;;;;;5113747;28;20021;-66
2023/12/24 12:11:24;;;;;;;2.40;1.25;;;12.50;99.90;;;;;;5113770;28;20020;-66
2023/12/24 12:13:50;;;;;;;1.80;1.10;;;12.50;99.90;;;;;;5113417;28;20078;-66
2023/12/24 12:16:16;;;;;;;1.75;0.90;;;12.50;99.90;;;;;;5112352;28;20593;-66
2023/12/24 12:18:41;;;;;;;2.97;1.17;;;12.50;99.90;;;;;;5113444;28;20097;-65
2023/12/24 12:21:10;;;;;;;1.70;1.00;;;12.50;99.90;;;;;;5108828;28;20084;-65
2023/12/24 12:23:37;;;;;;;0.90;0.77;;;12.50;99.90;;;;;;5103481;28;20025;-67
2023/12/24 12:26:03;;;;;;;0.88;0.57;;;12.50;99.90;;;;;;5101574;28;20024;-66
2023/12/24 12:28:29;;;;;;;1.27;0.98;;;12.50;99.90;;;;;;5101961;28;20059;-66
2023/12/24 12:30:54;;;;;;;3.03;1.17;;;12.50;99.90;;;;;;5092554;28;20028;-67
2023/12/24 12:33:20;;;;;;;1.20;1.00;;;12.40;99.90;;;;;;5092870;28;20625;-65
2023/12/24 12:35:45;;;;;;;2.03;1.40;;;12.50;99.90;;;;;;5090947;28;20033;-67
2023/12/24 12:38:11;;;;;;;1.40;0.98;;;12.40;99.90;;;;;;5095527;28;20024;-66
2023/12/24 12:40:37;;;;;;;3.33;2.20;;;12.40;99.90;;;;;;5103613;28;20060;-66
2023/12/24 12:43:02;;;;;;;4.72;2.05;;;12.40;99.90;;;;;;5103125;28;20054;-66